Time;durP1;ratioP1;P1;durP2;ratioP2;P2;SDS_P1;SDS_P2;PMS_P1;PMS_P2;Temp;Humidity;BMP_temperature;BMP_pressure;BME280_temperature;BME280_humidity;BME280_pressure;Samples;Min_cycle;Max_cycle;Signal;HPM_P1;HPM_P2
2021/11/15 00:01:50;;;;;;;24.17;11.48;;;9.10;99.90;;;;;;5059300;28;20024;-58
2021/11/15 00:04:18;;;;;;;22.45;11.88;;;9.20;99.90;;;;;;5060459;28;20036;-59
2021/11/15 00:06:43;;;;;;;22.20;11.90;;;9.20;99.90;;;;;;5052688;28;20073;-59
2021/11/15 00:09:09;;;;;;;22.33;13.05;;;9.20;99.90;;;;;;5059609;28;20033;-62
2021/11/15 00:11:35;;;;;;;18.23;11.07;;;9.10;99.90;;;;;;5059643;28;20076;-63
2021/11/15 00:14:02;;;;;;;18.58;11.23;;;9.20;99.90;;;;;;5052653;28;20075;-63
2021/11/15 00:16:28;;;;;;;19.13;11.85;;;9.10;99.90;;;;;;5058981;28;20440;-61
2021/11/15 00:18:54;;;;;;;19.33;11.95;;;9.20;99.90;;;;;;5059850;28;20045;-61
2021/11/15 00:21:20;;;;;;;16.67;10.23;;;9.20;99.90;;;;;;5060045;28;20032;-62
2021/11/15 00:23:46;;;;;;;18.65;11.68;;;9.10;99.90;;;;;;5062654;28;20029;-62
2021/11/15 00:26:11;;;;;;;21.55;11.70;;;9.20;99.90;;;;;;5058850;28;20032;-62
2021/11/15 00:28:38;;;;;;;23.25;12.20;;;9.20;99.90;;;;;;5059707;28;20653;-60
2021/11/15 00:31:04;;;;;;;21.92;12.75;;;9.10;99.90;;;;;;5055140;28;20032;-61
2021/11/15 00:33:30;;;;;;;17.88;11.40;;;9.10;99.90;;;;;;5057017;28;20032;-61
2021/11/15 00:35:55;;;;;;;21.80;11.95;;;9.10;99.90;;;;;;5057544;28;20025;-60
2021/11/15 00:38:21;;;;;;;19.65;11.65;;;9.10;99.90;;;;;;5056172;28;20051;-60
2021/11/15 00:40:47;;;;;;;21.05;11.70;;;9.10;99.90;;;;;;5068331;28;20083;-63
2021/11/15 00:43:12;;;;;;;20.45;11.18;;;9.10;99.90;;;;;;5058163;28;20039;-63
2021/11/15 00:45:38;;;;;;;19.60;11.55;;;9.10;99.90;;;;;;5058893;28;20028;-60
2021/11/15 00:48:05;;;;;;;18.95;11.55;;;9.10;99.90;;;;;;5056668;28;20048;-60
2021/11/15 00:50:31;;;;;;;17.75;11.23;;;9.10;99.90;;;;;;5063282;28;20031;-60
2021/11/15 00:52:57;;;;;;;21.65;12.38;;;9.10;99.90;;;;;;5053145;28;20024;-60
2021/11/15 00:55:23;;;;;;;19.80;12.93;;;9.10;99.90;;;;;;5057705;28;20475;-61
2021/11/15 00:57:49;;;;;;;21.08;11.70;;;9.20;99.90;;;;;;5055941;28;20442;-62
2021/11/15 01:00:20;;;;;;;28.02;12.43;;;9.20;99.90;;;;;;5060059;28;20112;-61
2021/11/15 01:02:45;;;;;;;23.35;12.43;;;9.20;99.90;;;;;;5053340;28;20013;-61
2021/11/15 01:05:11;;;;;;;21.17;12.48;;;9.20;99.90;;;;;;5058961;28;20037;-61
2021/11/15 01:07:37;;;;;;;22.17;12.43;;;9.20;99.90;;;;;;5060315;28;20021;-60
2021/11/15 01:10:05;;;;;;;21.13;13.13;;;9.20;99.90;;;;;;5055424;28;20113;-61
2021/11/15 01:12:30;;;;;;;23.15;13.00;;;9.30;99.90;;;;;;5055224;28;20083;-62
2021/11/15 01:14:56;;;;;;;22.85;12.82;;;9.20;99.90;;;;;;5058513;28;20024;-61
2021/11/15 01:17:22;;;;;;;22.20;14.27;;;9.20;99.90;;;;;;5060407;28;20037;-60
2021/11/15 01:19:48;;;;;;;24.80;12.52;;;9.20;99.90;;;;;;5057456;28;20037;-61
2021/11/15 01:22:13;;;;;;;21.98;13.13;;;9.30;99.90;;;;;;5054768;28;20426;-59
2021/11/15 01:24:39;;;;;;;20.58;12.88;;;9.20;99.90;;;;;;5058794;28;20021;-59
2021/11/15 01:27:05;;;;;;;22.05;12.48;;;9.20;99.90;;;;;;5072661;28;20399;-61
2021/11/15 01:29:30;;;;;;;24.45;13.48;;;9.20;99.90;;;;;;5070762;28;20449;-59
2021/11/15 01:31:57;;;;;;;20.77;12.55;;;9.10;99.90;;;;;;5061044;28;20164;-59
2021/11/15 01:34:24;;;;;;;20.77;12.00;;;9.20;99.90;;;;;;5055512;28;20033;-60
2021/11/15 01:36:50;;;;;;;24.45;12.80;;;9.20;99.90;;;;;;5064481;28;20506;-60
2021/11/15 01:39:16;;;;;;;24.40;13.82;;;9.10;99.90;;;;;;5062120;28;20039;-60
2021/11/15 01:41:41;;;;;;;20.42;12.93;;;9.10;99.90;;;;;;5064379;28;20055;-62
2021/11/15 01:44:07;;;;;;;22.52;11.73;;;9.10;99.90;;;;;;5059534;28;20044;-58
2021/11/15 01:46:33;;;;;;;20.73;12.20;;;9.10;99.90;;;;;;5064583;28;20037;-61
2021/11/15 01:48:58;;;;;;;21.33;12.05;;;9.10;99.90;;;;;;5062422;28;20025;-61
2021/11/15 01:51:24;;;;;;;21.02;13.00;;;9.10;99.90;;;;;;5062007;28;20074;-62
2021/11/15 01:53:50;;;;;;;23.98;12.68;;;9.10;99.90;;;;;;5059106;28;20029;-58
2021/11/15 01:56:16;;;;;;;21.38;12.10;;;9.10;99.90;;;;;;5054794;28;20589;-59
2021/11/15 01:58:41;;;;;;;19.92;11.70;;;9.10;99.90;;;;;;5064703;28;20032;-62
2021/11/15 02:01:07;;;;;;;21.00;12.32;;;9.10;99.90;;;;;;5071224;28;20482;-59
2021/11/15 02:03:33;;;;;;;19.70;11.48;;;9.10;99.90;;;;;;5065892;28;20127;-58
2021/11/15 02:06:01;;;;;;;23.90;13.07;;;9.10;99.90;;;;;;5065195;28;20462;-61
2021/11/15 02:08:26;;;;;;;19.90;11.10;;;9.10;99.90;;;;;;5068815;28;20028;-59
2021/11/15 02:10:52;;;;;;;22.02;12.48;;;9.10;99.90;;;;;;5073292;28;20050;-59
2021/11/15 02:13:21;;;;;;;20.83;11.65;;;9.10;99.90;;;;;;5068938;28;20031;-61
2021/11/15 02:15:50;;;;;;;21.58;13.25;;;9.10;99.90;;;;;;5065300;28;20048;-60
2021/11/15 02:18:16;;;;;;;26.35;12.85;;;9.10;99.90;;;;;;5066397;28;20046;-60
2021/11/15 02:20:41;;;;;;;24.80;13.70;;;9.10;99.90;;;;;;5072010;28;20482;-62
2021/11/15 02:23:07;;;;;;;22.20;13.13;;;9.10;99.90;;;;;;5072036;28;20028;-60
2021/11/15 02:25:34;;;;;;;20.52;13.15;;;9.10;99.90;;;;;;5065978;28;20052;-60
2021/11/15 02:27:59;;;;;;;21.15;11.35;;;9.10;99.90;;;;;;5071286;28;20035;-61
2021/11/15 02:30:27;;;;;;;19.55;11.10;;;9.10;99.90;;;;;;5063613;28;20032;-61
2021/11/15 02:32:54;;;;;;;22.17;12.70;;;9.10;99.90;;;;;;5065191;28;20021;-60
2021/11/15 02:35:21;;;;;;;20.08;12.00;;;9.10;99.90;;;;;;5060259;28;20033;-60
2021/11/15 02:37:47;;;;;;;26.88;12.52;;;9.10;99.90;;;;;;5068429;28;20101;-61
2021/11/15 02:40:16;;;;;;;20.75;12.10;;;9.10;99.90;;;;;;5062137;28;20124;-60
2021/11/15 02:42:43;;;;;;;20.38;11.95;;;9.10;99.90;;;;;;5063589;28;20051;-61
2021/11/15 02:45:10;;;;;;;18.45;12.45;;;9.10;99.90;;;;;;5065531;28;20459;-61
2021/11/15 02:47:37;;;;;;;22.65;12.63;;;9.10;99.90;;;;;;5063616;28;20025;-61
2021/11/15 02:50:04;;;;;;;24.73;11.13;;;9.10;99.90;;;;;;5064634;28;20024;-58
2021/11/15 02:52:29;;;;;;;19.85;11.30;;;9.10;99.90;;;;;;5070351;28;20294;-60
2021/11/15 02:54:58;;;;;;;21.98;13.18;;;9.10;99.90;;;;;;5066462;28;20065;-61
2021/11/15 02:57:24;;;;;;;22.67;12.30;;;9.20;99.90;;;;;;5070143;28;20028;-60
2021/11/15 02:59:50;;;;;;;18.75;11.82;;;9.10;99.90;;;;;;5069121;28;20058;-61
2021/11/15 03:02:15;;;;;;;20.25;12.50;;;9.20;99.90;;;;;;5070476;28;20056;-61
2021/11/15 03:04:44;;;;;;;23.17;12.45;;;9.20;99.90;;;;;;5068395;28;20781;-60
2021/11/15 03:07:10;;;;;;;23.55;11.80;;;9.20;99.90;;;;;;5068033;28;20038;-61
2021/11/15 03:09:39;;;;;;;17.70;10.82;;;9.20;99.90;;;;;;5070451;28;20034;-61
2021/11/15 03:12:05;;;;;;;19.13;10.02;;;9.20;99.90;;;;;;5069995;28;20028;-61
2021/11/15 03:14:30;;;;;;;17.80;11.45;;;9.20;99.90;;;;;;5066069;28;20033;-61
2021/11/15 03:16:56;;;;;;;19.35;11.07;;;9.10;99.90;;;;;;5062296;28;20017;-61
2021/11/15 03:19:22;;;;;;;19.42;11.07;;;9.10;99.90;;;;;;5063410;28;20017;-61
2021/11/15 03:21:47;;;;;;;22.23;10.82;;;9.10;99.90;;;;;;5073766;28;20031;-61
2021/11/15 03:24:13;;;;;;;33.47;11.20;;;9.10;99.90;;;;;;5071432;28;20044;-61
2021/11/15 03:26:39;;;;;;;21.27;11.50;;;9.10;99.90;;;;;;5060110;28;20037;-61
2021/11/15 03:29:04;;;;;;;20.65;11.73;;;9.10;99.90;;;;;;5064637;28;20032;-60
2021/11/15 03:31:35;;;;;;;17.42;11.13;;;9.20;99.90;;;;;;5067296;28;20071;-59
2021/11/15 03:34:09;;;;;;;21.67;10.85;;;9.10;99.90;;;;;;5063393;28;20124;-60
2021/11/15 03:36:36;;;;;;;19.95;11.98;;;9.20;99.90;;;;;;5066156;28;20036;-61
2021/11/15 03:39:03;;;;;;;22.40;11.40;;;9.20;99.90;;;;;;5066079;28;20116;-60
2021/11/15 03:41:32;;;;;;;18.25;11.38;;;9.20;99.90;;;;;;5071853;28;20112;-60
2021/11/15 03:43:58;;;;;;;26.55;13.20;;;9.10;99.90;;;;;;5064119;28;20781;-61
2021/11/15 03:46:24;;;;;;;18.95;11.02;;;9.10;99.90;;;;;;5065345;28;20033;-60
2021/11/15 03:48:50;;;;;;;18.08;11.15;;;9.20;99.90;;;;;;5064079;28;20028;-61
2021/11/15 03:51:17;;;;;;;24.42;11.98;;;9.20;99.90;;;;;;5061422;28;20024;-59
2021/11/15 03:53:43;;;;;;;21.67;10.60;;;9.20;99.90;;;;;;5063124;28;20047;-61
2021/11/15 03:56:12;;;;;;;21.38;10.73;;;9.20;99.90;;;;;;5063419;28;20024;-61
2021/11/15 03:58:44;;;;;;;25.38;10.52;;;9.30;99.90;;;;;;5062684;28;20115;-60
2021/11/15 04:01:11;;;;;;;17.55;10.20;;;9.20;99.90;;;;;;5068566;28;20041;-60
2021/11/15 04:03:41;;;;;;;18.58;10.23;;;9.20;99.90;;;;;;5060498;28;20025;-61
2021/11/15 04:06:13;;;;;;;23.17;11.23;;;9.10;99.90;;;;;;5055758;28;20036;-60
2021/11/15 04:08:39;;;;;;;16.98;9.70;;;9.10;99.90;;;;;;5064249;28;20025;-60
2021/11/15 04:11:07;;;;;;;22.65;10.52;;;9.10;99.90;;;;;;5067075;28;20447;-62
2021/11/15 04:13:38;;;;;;;20.33;9.65;;;9.10;99.90;;;;;;5060947;28;20029;-61
2021/11/15 04:16:07;;;;;;;18.38;11.07;;;9.10;99.90;;;;;;5059851;28;20029;-61
2021/11/15 04:18:38;;;;;;;18.92;11.10;;;9.10;99.90;;;;;;5066020;28;20128;-61
2021/11/15 04:21:06;;;;;;;18.42;10.20;;;9.20;99.90;;;;;;5068349;28;20036;-62
2021/11/15 04:23:32;;;;;;;18.45;10.93;;;9.20;99.90;;;;;;5068882;28;20368;-62
2021/11/15 04:25:57;;;;;;;17.55;11.95;;;9.20;99.90;;;;;;5062322;28;20044;-61
2021/11/15 04:28:23;;;;;;;17.55;10.65;;;9.20;99.90;;;;;;5067365;28;20032;-55
2021/11/15 04:30:49;;;;;;;19.48;10.10;;;9.20;99.90;;;;;;5070467;28;20024;-61
2021/11/15 04:33:15;;;;;;;16.17;9.70;;;9.20;99.90;;;;;;5069942;28;20029;-61
2021/11/15 04:35:40;;;;;;;18.58;10.65;;;9.10;99.90;;;;;;5090703;22;20287;-62
2021/11/15 04:38:07;;;;;;;18.75;10.15;;;9.20;99.90;;;;;;5074094;28;20054;-64
2021/11/15 04:40:33;;;;;;;17.08;11.02;;;9.20;99.90;;;;;;5070693;28;20108;-64
2021/11/15 04:42:59;;;;;;;18.88;10.35;;;9.10;99.90;;;;;;5067895;28;20498;-64
2021/11/15 04:45:25;;;;;;;18.50;10.85;;;9.10;99.90;;;;;;5069289;28;20031;-64
2021/11/15 04:47:51;;;;;;;16.75;10.38;;;9.10;99.90;;;;;;5068124;28;20036;-63
2021/11/15 04:50:17;;;;;;;19.33;10.07;;;9.20;99.90;;;;;;5070444;28;20397;-64
2021/11/15 04:52:43;;;;;;;18.70;9.57;;;9.10;99.90;;;;;;5074917;28;20024;-64
2021/11/15 04:55:11;;;;;;;18.95;10.55;;;9.10;99.90;;;;;;5075891;28;20065;-62
2021/11/15 04:57:37;;;;;;;16.60;9.75;;;9.10;99.90;;;;;;5065862;28;20021;-63
2021/11/15 05:00:10;;;;;;;17.85;9.65;;;9.10;99.90;;;;;;5070168;28;20020;-63
2021/11/15 05:02:36;;;;;;;19.83;10.55;;;9.10;99.90;;;;;;5069374;28;20461;-64
2021/11/15 05:05:02;;;;;;;15.93;9.50;;;9.10;99.90;;;;;;5071156;28;20099;-63
2021/11/15 05:07:27;;;;;;;17.95;10.98;;;9.10;99.90;;;;;;5073315;28;20104;-63
2021/11/15 05:09:53;;;;;;;19.38;10.35;;;9.10;99.90;;;;;;5070973;28;20096;-63
2021/11/15 05:12:18;;;;;;;17.45;10.65;;;9.10;99.90;;;;;;5072599;28;20036;-64
2021/11/15 05:14:44;;;;;;;17.00;10.75;;;9.10;99.90;;;;;;5070473;28;20027;-64
2021/11/15 05:17:10;;;;;;;17.83;9.75;;;9.10;99.90;;;;;;5069553;28;20114;-64
2021/11/15 05:19:35;;;;;;;21.13;11.65;;;9.20;99.90;;;;;;5069182;28;20032;-63
2021/11/15 05:22:01;;;;;;;17.40;10.13;;;9.10;99.90;;;;;;5074413;28;20428;-63
2021/11/15 05:24:26;;;;;;;19.50;10.85;;;9.10;99.90;;;;;;5069637;28;20072;-63
2021/11/15 05:26:52;;;;;;;19.42;11.63;;;9.10;99.90;;;;;;5072353;28;20628;-64
2021/11/15 05:29:17;;;;;;;18.95;10.15;;;9.10;99.90;;;;;;5073074;28;20086;-63
2021/11/15 05:31:43;;;;;;;24.48;11.45;;;9.10;99.90;;;;;;5072189;28;20125;-63
2021/11/15 05:34:09;;;;;;;19.88;10.93;;;9.10;99.90;;;;;;5067432;28;20029;-64
2021/11/15 05:36:35;;;;;;;19.73;11.18;;;9.10;99.90;;;;;;5065929;28;20028;-63
2021/11/15 05:39:01;;;;;;;20.02;10.75;;;9.10;99.90;;;;;;5070337;28;20170;-63
2021/11/15 05:41:26;;;;;;;19.42;11.20;;;9.10;99.90;;;;;;5074460;28;20088;-64
2021/11/15 05:43:52;;;;;;;23.15;11.75;;;9.10;99.90;;;;;;5068635;28;20021;-63
2021/11/15 05:46:17;;;;;;;20.30;11.80;;;9.00;99.90;;;;;;5067310;28;20040;-64
2021/11/15 05:48:43;;;;;;;20.88;10.95;;;9.00;99.90;;;;;;5067041;28;20068;-62
2021/11/15 05:51:08;;;;;;;21.60;12.00;;;9.10;99.90;;;;;;5072377;28;20024;-63
2021/11/15 05:53:36;;;;;;;25.85;11.60;;;9.10;99.90;;;;;;5076049;28;20025;-63
2021/11/15 05:56:05;;;;;;;21.77;10.88;;;9.10;99.90;;;;;;5069701;28;20020;-63
2021/11/15 05:58:31;;;;;;;18.25;11.57;;;9.00;99.90;;;;;;5066723;28;20112;-64
2021/11/15 06:00:56;;;;;;;20.00;10.75;;;9.00;99.90;;;;;;5068324;28;20445;-63
2021/11/15 06:03:22;;;;;;;20.42;10.02;;;9.00;99.90;;;;;;5072618;28;20028;-65
2021/11/15 06:05:48;;;;;;;25.48;11.75;;;9.00;99.90;;;;;;5068114;28;20064;-64
2021/11/15 06:08:13;;;;;;;19.00;10.95;;;9.00;99.90;;;;;;5066727;28;20020;-63
2021/11/15 06:10:39;;;;;;;23.67;11.95;;;9.00;99.90;;;;;;5076352;28;20035;-64
2021/11/15 06:13:06;;;;;;;21.45;11.68;;;9.00;99.90;;;;;;5069922;28;20024;-63
2021/11/15 06:15:32;;;;;;;23.25;12.27;;;9.00;99.90;;;;;;5066274;28;20029;-62
2021/11/15 06:17:57;;;;;;;23.02;11.98;;;9.00;99.90;;;;;;5070738;28;20024;-63
2021/11/15 06:20:23;;;;;;;21.13;11.38;;;9.00;99.90;;;;;;5072128;28;20056;-63
2021/11/15 06:22:48;;;;;;;23.70;12.27;;;9.00;99.90;;;;;;5066373;28;20375;-63
2021/11/15 06:25:15;;;;;;;21.83;12.88;;;9.00;99.90;;;;;;5069341;28;20027;-64
2021/11/15 06:27:41;;;;;;;20.95;11.10;;;8.90;99.90;;;;;;5072893;28;20021;-64
2021/11/15 06:30:09;;;;;;;22.40;11.18;;;8.90;99.90;;;;;;5068937;28;20036;-63
2021/11/15 06:32:35;;;;;;;26.10;12.85;;;9.00;99.90;;;;;;5069870;28;20040;-63
2021/11/15 06:35:00;;;;;;;21.20;11.65;;;8.90;99.90;;;;;;5088144;28;20020;-63
2021/11/15 06:37:26;;;;;;;23.55;11.73;;;9.00;99.90;;;;;;5069999;28;20052;-63
2021/11/15 06:39:52;;;;;;;22.67;12.27;;;9.00;99.90;;;;;;5071420;28;20024;-62
2021/11/15 06:42:17;;;;;;;18.10;11.75;;;9.00;99.90;;;;;;5075241;28;20039;-63
2021/11/15 06:44:43;;;;;;;20.98;11.07;;;8.90;99.90;;;;;;5071363;28;20043;-63
2021/11/15 06:47:09;;;;;;;23.13;12.43;;;9.00;99.90;;;;;;5081503;28;20028;-60
2021/11/15 06:49:35;;;;;;;24.92;12.25;;;8.90;99.90;;;;;;5091369;28;20028;-63
2021/11/15 06:52:00;;;;;;;23.40;12.27;;;8.90;99.90;;;;;;5075657;28;20028;-62
2021/11/15 06:54:26;;;;;;;22.58;10.48;;;8.90;99.90;;;;;;5072206;28;20491;-63
2021/11/15 06:56:53;;;;;;;22.75;12.00;;;9.00;99.90;;;;;;5075759;28;20028;-61
2021/11/15 06:59:21;;;;;;;26.65;12.88;;;9.00;99.90;;;;;;5071473;28;20028;-60
2021/11/15 07:01:46;;;;;;;21.98;11.40;;;9.00;99.90;;;;;;5077066;28;20024;-62
2021/11/15 07:04:12;;;;;;;23.63;12.00;;;9.10;99.90;;;;;;5075448;28;20196;-62
2021/11/15 07:06:41;;;;;;;22.55;12.27;;;9.10;99.90;;;;;;5068786;28;20101;-62
2021/11/15 07:09:07;;;;;;;26.45;12.52;;;9.10;99.90;;;;;;5090517;28;20034;-61
2021/11/15 07:11:34;;;;;;;20.50;11.45;;;9.10;99.90;;;;;;5081742;28;20440;-59
2021/11/15 07:14:00;;;;;;;21.58;12.15;;;9.20;99.90;;;;;;5069577;28;20021;-60
2021/11/15 07:16:27;;;;;;;23.10;10.93;;;9.20;99.90;;;;;;5070730;28;20052;-62
2021/11/15 07:18:53;;;;;;;22.48;11.77;;;9.20;99.90;;;;;;5071676;28;20036;-62
2021/11/15 07:21:20;;;;;;;19.60;10.32;;;9.20;99.90;;;;;;5074027;28;20035;-63
2021/11/15 07:23:46;;;;;;;22.98;11.73;;;9.20;99.90;;;;;;5077247;28;20460;-61
2021/11/15 07:26:12;;;;;;;28.83;12.52;;;9.10;99.90;;;;;;5075666;28;20020;-62
2021/11/15 07:28:38;;;;;;;21.48;12.02;;;9.20;99.90;;;;;;5080210;28;20107;-61
2021/11/15 07:31:04;;;;;;;20.13;11.63;;;9.10;99.90;;;;;;5089231;28;20110;-62
2021/11/15 07:33:29;;;;;;;21.90;11.25;;;9.00;99.90;;;;;;5079673;28;20024;-63
2021/11/15 07:35:55;;;;;;;24.83;11.60;;;9.00;99.90;;;;;;5067292;28;20025;-62
2021/11/15 07:38:21;;;;;;;22.27;12.02;;;9.00;99.90;;;;;;5070919;28;20028;-61
2021/11/15 07:40:47;;;;;;;24.70;12.38;;;9.00;99.90;;;;;;5070715;28;20040;-61
2021/11/15 07:43:14;;;;;;;23.30;11.63;;;9.00;99.90;;;;;;5070576;28;20028;-61
2021/11/15 07:45:40;;;;;;;25.65;13.05;;;9.10;99.90;;;;;;5075213;28;20028;-61
2021/11/15 07:48:05;;;;;;;22.90;12.82;;;9.10;99.90;;;;;;5080205;28;20394;-63
2021/11/15 07:50:31;;;;;;;21.75;11.25;;;9.10;99.90;;;;;;5076191;28;20036;-60
2021/11/15 07:52:57;;;;;;;22.85;12.05;;;9.10;99.90;;;;;;5089762;28;20020;-61
2021/11/15 07:55:23;;;;;;;23.63;12.50;;;9.20;99.90;;;;;;5070887;28;20028;-63
2021/11/15 07:57:49;;;;;;;27.40;12.88;;;9.10;99.90;;;;;;5070573;28;20390;-63
2021/11/15 08:00:18;;;;;;;22.58;11.45;;;9.10;99.90;;;;;;5070580;28;20028;-62
2021/11/15 08:02:44;;;;;;;24.08;12.20;;;9.10;99.90;;;;;;5069707;28;20060;-60
2021/11/15 08:05:12;;;;;;;21.67;11.18;;;9.10;99.90;;;;;;5082039;28;20020;-61
2021/11/15 08:07:38;;;;;;;23.10;12.60;;;9.10;99.90;;;;;;5089726;28;20020;-63
2021/11/15 08:10:06;;;;;;;20.67;11.50;;;9.10;99.90;;;;;;5081191;28;20128;-61
2021/11/15 08:12:38;;;;;;;27.95;11.52;;;9.10;99.90;;;;;;5075761;28;20031;-60
2021/11/15 08:15:07;;;;;;;20.27;11.38;;;9.10;99.90;;;;;;5081719;28;20077;-63
2021/11/15 08:17:37;;;;;;;20.75;11.32;;;9.20;99.90;;;;;;5080634;28;20017;-63
2021/11/15 08:20:05;;;;;;;19.92;10.68;;;9.10;99.90;;;;;;5076070;28;20425;-62
2021/11/15 08:22:31;;;;;;;26.95;11.77;;;9.10;99.90;;;;;;5075185;28;20504;-61
2021/11/15 08:24:59;;;;;;;22.73;11.68;;;9.10;99.90;;;;;;5079788;28;20055;-61
2021/11/15 08:27:25;;;;;;;21.48;11.85;;;9.10;99.90;;;;;;5092375;28;20032;-62
2021/11/15 08:29:51;;;;;;;21.33;11.55;;;9.10;99.90;;;;;;5093778;28;20038;-61
2021/11/15 08:32:17;;;;;;;25.88;13.02;;;9.10;99.90;;;;;;5078916;28;20063;-62
2021/11/15 08:34:43;;;;;;;24.20;13.25;;;9.00;99.90;;;;;;5072746;28;20108;-62
2021/11/15 08:37:10;;;;;;;25.30;12.15;;;9.00;99.90;;;;;;5087390;28;20024;-62
2021/11/15 08:39:36;;;;;;;27.02;13.48;;;9.00;99.90;;;;;;5094206;28;20107;-61
2021/11/15 08:42:09;;;;;;;23.83;12.00;;;9.00;99.90;;;;;;5084960;28;20119;-61
2021/11/15 08:44:40;;;;;;;22.92;12.80;;;8.90;99.90;;;;;;5079282;28;20024;-62
2021/11/15 08:47:06;;;;;;;21.45;12.15;;;8.90;99.90;;;;;;5081100;28;20028;-62
2021/11/15 08:49:35;;;;;;;22.05;11.23;;;9.00;99.90;;;;;;5091819;28;20036;-63
2021/11/15 08:52:04;;;;;;;24.40;12.75;;;9.00;99.90;;;;;;5093242;28;20508;-63
2021/11/15 08:54:30;;;;;;;22.58;11.30;;;9.10;99.90;;;;;;5093102;28;20514;-63
2021/11/15 08:57:04;;;;;;;19.25;10.38;;;9.10;99.90;;;;;;5087665;28;20058;-63
2021/11/15 08:59:31;;;;;;;26.13;11.43;;;9.20;99.90;;;;;;5085300;28;20482;-63
2021/11/15 09:01:57;;;;;;;21.83;11.02;;;9.20;99.90;;;;;;5077510;28;20016;-62
2021/11/15 09:04:22;;;;;;;18.85;10.70;;;9.10;99.90;;;;;;5078292;28;20054;-61
2021/11/15 09:06:49;;;;;;;21.42;11.25;;;9.20;99.90;;;;;;5082328;28;20114;-62
2021/11/15 09:09:16;;;;;;;19.70;11.35;;;9.20;99.90;;;;;;5091753;28;20036;-61
2021/11/15 09:11:54;;;;;;;20.35;11.18;;;9.20;99.90;;;;;;5087575;28;20035;-63
2021/11/15 09:14:21;;;;;;;22.25;10.88;;;9.20;99.90;;;;;;5082456;28;20027;-62
2021/11/15 09:16:47;;;;;;;19.92;11.18;;;9.20;99.90;;;;;;5082824;28;20467;-62
2021/11/15 09:19:15;;;;;;;22.40;12.77;;;9.20;99.90;;;;;;5092645;28;20398;-63
2021/11/15 09:21:41;;;;;;;28.38;12.35;;;9.20;99.90;;;;;;5086058;28;20032;-62
2021/11/15 09:24:07;;;;;;;21.35;12.75;;;9.20;99.90;;;;;;5078463;28;20044;-63
2021/11/15 09:26:33;;;;;;;23.50;11.75;;;9.20;99.90;;;;;;5081305;28;20028;-62
2021/11/15 09:28:59;;;;;;;26.15;12.48;;;9.30;99.90;;;;;;5091985;28;20050;-61
2021/11/15 09:31:26;;;;;;;24.15;13.00;;;9.20;99.90;;;;;;5067920;28;20031;-62
2021/11/15 09:33:53;;;;;;;22.60;11.85;;;9.20;99.90;;;;;;5072995;28;20302;-61
2021/11/15 09:36:24;;;;;;;21.40;11.05;;;9.30;99.90;;;;;;5072173;28;20051;-61
2021/11/15 09:38:51;;;;;;;21.77;12.45;;;9.20;99.90;;;;;;5076225;28;20023;-64
2021/11/15 09:41:16;;;;;;;21.40;11.27;;;9.20;99.90;;;;;;5079987;28;20495;-62
2021/11/15 09:43:42;;;;;;;26.10;11.55;;;9.20;99.90;;;;;;5078311;28;20043;-63
2021/11/15 09:46:15;;;;;;;26.60;12.55;;;9.20;99.90;;;;;;5075788;28;20433;-63
2021/11/15 09:48:46;;;;;;;22.02;12.88;;;9.20;99.90;;;;;;5066725;28;20024;-64
2021/11/15 09:51:12;;;;;;;26.67;13.10;;;9.20;99.90;;;;;;5077231;28;20043;-63
2021/11/15 09:53:38;;;;;;;21.20;11.25;;;9.20;99.90;;;;;;5082221;28;20017;-60
2021/11/15 09:56:06;;;;;;;20.50;11.18;;;9.20;99.90;;;;;;5078036;28;20116;-62
2021/11/15 09:58:34;;;;;;;28.77;12.25;;;9.20;99.90;;;;;;5080676;28;20043;-63
2021/11/15 10:00:59;;;;;;;24.30;12.77;;;9.20;99.90;;;;;;5092452;28;20378;-61
2021/11/15 10:03:26;;;;;;;25.63;12.55;;;9.20;99.90;;;;;;5091043;28;20024;-63
2021/11/15 10:05:52;;;;;;;21.25;12.13;;;9.20;99.90;;;;;;5085929;28;20069;-63
2021/11/15 10:08:18;;;;;;;21.27;12.15;;;9.30;99.90;;;;;;5077796;28;20120;-63
2021/11/15 10:10:58;;;;;;;23.98;12.88;;;9.30;99.90;;;;;;5085357;28;20103;-63
2021/11/15 10:13:27;;;;;;;24.73;11.80;;;9.30;99.90;;;;;;5079574;28;20024;-64
2021/11/15 10:16:01;;;;;;;28.35;12.85;;;9.30;99.90;;;;;;5076673;28;20066;-61
2021/11/15 10:18:56;;;;;;;25.83;13.68;;;9.30;99.90;;;;;;5064813;28;20462;-63
2021/11/15 10:21:31;;;;;;;27.08;13.52;;;9.30;99.90;;;;;;5072470;28;20424;-62
2021/11/15 10:24:46;;;;;;;24.38;13.43;;;9.30;99.90;;;;;;5082007;28;20086;-60
2021/11/15 10:27:17;;;;;;;23.90;12.90;;;9.30;99.90;;;;;;5069542;28;20032;-61
2021/11/15 10:29:45;;;;;;;28.42;14.23;;;9.30;99.90;;;;;;5074580;28;20097;-63
2021/11/15 10:32:17;;;;;;;25.75;14.25;;;9.30;99.90;;;;;;5079021;28;20486;-61
2021/11/15 10:34:50;;;;;;;25.55;12.32;;;9.30;99.90;;;;;;5078268;28;20128;-60
2021/11/15 10:37:22;;;;;;;26.88;13.52;;;9.30;99.90;;;;;;5105061;22;20044;-58
2021/11/15 10:39:55;;;;;;;27.05;14.13;;;9.30;99.90;;;;;;5091746;28;20081;-58
2021/11/15 10:42:22;;;;;;;25.17;13.98;;;9.30;99.90;;;;;;5072675;28;20023;-59
2021/11/15 10:44:52;;;;;;;27.33;12.98;;;9.20;99.90;;;;;;5072693;28;20052;-59
2021/11/15 10:47:23;;;;;;;28.42;14.07;;;9.20;99.90;;;;;;5089056;28;20032;-58
2021/11/15 10:49:57;;;;;;;27.60;13.55;;;9.20;99.90;;;;;;5092004;28;20020;-60
2021/11/15 10:52:23;;;;;;;24.73;12.50;;;9.10;99.90;;;;;;5085567;28;20582;-59
2021/11/15 10:57:31;;;;;;;23.02;12.50;;;9.10;99.90;;;;;;5091254;28;20474;-60
2021/11/15 11:00:10;;;;;;;25.25;12.52;;;9.10;99.90;;;;;;5062549;28;20547;-60
2021/11/15 11:02:39;;;;;;;23.50;12.13;;;9.20;99.90;;;;;;5071840;28;20028;-58
2021/11/15 11:05:11;;;;;;;24.20;11.75;;;9.20;99.90;;;;;;5083698;28;20028;-57
2021/11/15 11:07:38;;;;;;;26.58;11.75;;;9.20;99.90;;;;;;5089870;28;20497;-59
2021/11/15 11:10:06;;;;;;;25.63;13.35;;;9.20;99.90;;;;;;5102110;28;20070;-58
2021/11/15 11:12:39;;;;;;;25.85;12.77;;;9.30;99.90;;;;;;5105080;28;20414;-57
2021/11/15 11:15:40;;;;;;;25.42;13.10;;;9.30;99.90;;;;;;5065664;28;20436;-57
2021/11/15 11:18:11;;;;;;;26.92;13.90;;;9.30;99.90;;;;;;5086152;28;20077;-57
2021/11/15 11:26:18;;;;;;;30.83;14.30;;;9.30;99.90;;;;;;5088407;28;20032;-58
2021/11/15 11:28:49;;;;;;;28.83;13.30;;;9.40;99.90;;;;;;5066527;28;20017;-59
2021/11/15 11:31:16;;;;;;;28.52;14.10;;;9.40;99.90;;;;;;5085430;28;20085;-62
2021/11/15 11:33:43;;;;;;;23.90;13.07;;;9.40;99.90;;;;;;5090591;28;20134;-56
2021/11/15 11:36:09;;;;;;;32.80;12.70;;;9.40;99.90;;;;;;5070506;28;20039;-57
2021/11/15 11:38:37;;;;;;;26.52;13.52;;;9.30;99.90;;;;;;5072240;28;20470;-59
2021/11/15 11:41:03;;;;;;;28.83;13.48;;;9.30;99.90;;;;;;5084174;28;20039;-60
2021/11/15 11:43:29;;;;;;;26.17;13.35;;;9.30;99.90;;;;;;5080626;28;20047;-61
2021/11/15 11:45:54;;;;;;;26.38;12.52;;;9.30;99.90;;;;;;5090621;28;20036;-60
2021/11/15 11:48:20;;;;;;;25.83;12.50;;;9.30;99.90;;;;;;5085292;28;20033;-61
2021/11/15 11:50:48;;;;;;;23.92;12.00;;;9.30;99.90;;;;;;5078386;28;20024;-61
2021/11/15 11:53:20;;;;;;;28.75;12.90;;;9.30;99.90;;;;;;5086296;28;20024;-63
2021/11/15 11:55:47;;;;;;;28.08;13.05;;;9.30;99.90;;;;;;5084294;28;20028;-62
2021/11/15 11:58:29;;;;;;;28.70;12.70;;;9.30;99.90;;;;;;5079928;28;20031;-59
2021/11/15 12:00:56;;;;;;;27.38;15.05;;;9.30;99.90;;;;;;5082398;28;20449;-60
2021/11/15 12:03:24;;;;;;;31.55;15.88;;;9.20;99.90;;;;;;5087962;28;20028;-61
2021/11/15 12:05:50;;;;;;;28.20;14.30;;;9.30;99.90;;;;;;5086961;28;20032;-61
2021/11/15 12:08:16;;;;;;;26.98;12.85;;;9.20;99.90;;;;;;5074789;28;20062;-62
2021/11/15 12:10:44;;;;;;;35.97;17.60;;;9.20;99.90;;;;;;5085819;28;20023;-61
2021/11/15 12:13:15;;;;;;;39.83;18.45;;;9.10;99.90;;;;;;5086638;28;20111;-62
2021/11/15 12:15:59;;;;;;;35.03;15.93;;;9.20;99.90;;;;;;5087412;28;20082;-59
2021/11/15 12:18:35;;;;;;;34.58;15.85;;;9.20;99.90;;;;;;5059977;28;20032;-62
2021/11/15 12:21:04;;;;;;;39.38;18.60;;;9.10;99.90;;;;;;5081488;28;20539;-59
2021/11/15 12:23:41;;;;;;;27.30;14.57;;;9.20;99.90;;;;;;5087100;28;20043;-57
2021/11/15 12:26:10;;;;;;;30.88;13.60;;;9.20;99.90;;;;;;5082852;28;20028;-56
2021/11/15 12:28:39;;;;;;;34.10;13.80;;;9.20;99.90;;;;;;5084406;28;20154;-59
2021/11/15 12:31:09;;;;;;;37.70;14.68;;;9.10;99.90;;;;;;5086365;28;20040;-60
2021/11/15 12:33:36;;;;;;;31.30;14.43;;;9.00;99.90;;;;;;5076565;28;20019;-60
2021/11/15 12:36:25;;;;;;;28.90;14.18;;;9.00;99.90;;;;;;5068253;28;20676;-59
2021/11/15 12:39:00;;;;;;;23.88;11.88;;;9.00;99.90;;;;;;5085716;28;20538;-61
2021/11/15 12:41:29;;;;;;;28.25;14.07;;;9.10;99.90;;;;;;5081917;28;20033;-60
2021/11/15 12:44:02;;;;;;;24.50;12.43;;;9.10;99.90;;;;;;5082024;28;20039;-61
2021/11/15 12:46:51;;;;;;;27.63;13.65;;;9.00;99.90;;;;;;5080120;28;20024;-59
2021/11/15 12:49:24;;;;;;;32.40;13.20;;;9.00;99.90;;;;;;5081373;28;20040;-60